Date,TemperatureHighF,TemperatureAvgF,TemperatureLowF,DewpointHighF,DewpointAvgF,DewpointLowF,HumidityHigh,HumidityAvg,HumidityLow,PressureMaxIn,PressureMinIn,WindSpeedMaxMPH,WindSpeedAvgMPH,GustSpeedMaxMPH,PrecipitationSumIn
2013-1-9,53.1,52.4,51.4,42.4,41.3,39.9,71,66,61,29.56,29.53,10,4,10,0.00
2013-1-10,56.4,51.9,49.2,52.4,47.3,42.2,91,84,70,29.53,29.18,11,4,13,0.00
2013-1-11,67.8,55.1,44.3,46.5,43.5,40.2,86,67,43,29.25,29.07,19,5,20,0.00
2013-1-12,58.3,41.2,29.5,46.4,28.9,19.6,80,63,32,29.46,29.17,20,6,24,0.00
2013-1-13,34.7,28.0,23.1,19.9,15.0,10.6,70,58,45,29.77,29.38,13,2,14,0.00
2013-1-14,36.9,27.4,19.2,14.0,12.3,10.0,70,54,34,29.86,29.70,12,4,16,0.00
2013-1-15,38.9,28.9,21.7,16.9,12.3,8.5,66,51,33,29.71,29.56,10,3,13,0.00
2013-1-16,51.4,35.6,22.6,19.6,13.9,8.0,57,42,23,29.60,29.50,12,2,13,0.00
2013-1-17,53.5,41.7,32.2,30.3,24.0,15.7,70,50,34,29.86,29.58,16,4,19,0.00
2013-1-18,59.0,45.5,34.1,30.0,26.5,22.5,65,49,28,29.88,29.57,18,5,20,0.00
2013-1-19,67.2,50.7,41.9,35.8,32.2,29.3,64,51,29,29.58,29.46,21,4,21,0.00
2013-1-20,65.5,48.4,34.7,39.8,29.1,14.3,67,48,36,29.67,29.49,17,4,23,0.00
2013-1-21,44.5,33.2,25.6,15.0,11.2,7.5,53,41,22,29.80,29.67,16,5,18,0.00
2013-1-22,55.5,37.6,23.9,26.6,19.2,12.2,62,49,31,29.69,29.56,14,3,17,0.00
2013-1-23,63.6,46.1,32.9,41.1,30.6,20.3,66,55,40,29.65,29.50,11,2,13,0.00
2013-1-24,48.5,43.0,38.4,35.2,24.6,18.6,64,48,36,29.66,29.48,15,5,17,0.00
2013-1-25,51.6,42.3,36.0,27.5,23.2,19.0,53,47,37,29.63,29.50,11,3,12,0.00
2013-1-26,57.5,45.6,34.9,33.3,27.0,22.8,68,49,31,29.64,29.48,16,4,17,0.00
2013-1-27,59.7,52.9,46.5,53.5,45.8,32.8,86,77,57,29.48,29.27,18,6,22,0.00
2013-1-28,74.1,67.0,56.2,61.6,59.1,52.1,88,76,61,29.34,29.15,20,7,23,0.00
2013-1-29,68.5,59.4,45.2,63.4,53.8,39.4,92,82,67,29.16,28.81,20,5,23,0.00
2013-1-30,45.5,39.6,30.7,39.7,26.1,19.9,80,59,43,29.46,28.98,27,7,29,0.00
2013-1-31,54.0,35.6,23.9,27.5,20.1,5.7,71,54,30,29.84,29.40,23,5,26,0.00
2013-2-1,46.7,31.7,19.0,19.0,9.9,-0.1,54,41,24,29.85,29.53,13,3,16,0.00
2013-2-2,62.6,44.7,30.8,30.1,24.4,17.7,60,46,27,29.66,29.55,11,3,14,0.00
2013-2-3,60.2,48.1,38.3,29.0,24.2,18.2,60,41,21,29.70,29.32,10,3,12,0.00
2013-2-4,71.8,55.5,44.2,40.2,31.3,24.6,58,41,22,29.35,29.20,14,4,18,0.00
2013-2-5,44.1,42.4,40.9,30.4,29.7,29.1,63,60,58,29.35,29.33,4,2,5,0.00
2013-2-6,62.9,47.2,40.9,44.2,34.2,30.2,75,61,45,29.45,29.12,16,4,18,0.00
2013-2-12,43.4,39.0,34.8,37.4,29.7,23.5,85,70,55,29.51,29.33,12,3,16,0.00
2013-2-13,58.7,44.6,36.8,38.2,32.5,27.0,84,65,35,29.44,29.33,14,4,16,0.00
2013-2-14,63.7,48.4,36.4,34.1,28.7,23.6,64,48,30,29.59,29.35,16,4,22,0.00
2013-2-15,47.9,40.4,32.7,28.9,16.4,5.2,59,39,18,29.79,29.59,19,6,19,0.00
2013-2-16,47.8,37.9,28.6,23.2,13.4,4.5,65,39,17,29.77,29.46,19,4,19,0.00
2013-2-17,69.7,51.9,35.1,30.8,24.9,14.8,58,37,19,29.47,29.16,17,5,23,0.00
2013-2-18,63.2,56.8,53.1,49.0,40.7,29.6,70,56,31,29.17,29.03,24,10,32,0.00
2013-3-27,58.6,55.9,53.9,28.9,27.8,26.8,36,34,32,29.54,29.51,9,4,12,0.00
2013-3-28,74.7,60.1,46.3,50.0,39.4,25.9,61,47,35,29.58,29.45,15,5,19,0.00
2013-3-29,70.3,62.2,53.8,56.5,52.2,47.0,88,70,60,29.54,29.46,16,3,20,0.00
2013-3-30,76.0,63.9,55.2,59.1,54.7,50.5,90,73,54,29.47,29.22,15,4,18,0.00
2013-3-31,74.0,63.0,53.1,55.5,46.7,38.2,91,59,28,29.40,29.25,24,4,31,0.00
2013-4-18,65.7,57.5,51.5,61.0,51.2,44.6,86,79,76,29.07,28.88,19,9,22,0.00